CST,Max TemperatureF,Mean TemperatureF,Min TemperatureF,Max Dew PointF,MeanDew PointF,Min DewpointF,Max Humidity, Mean Humidity, Min Humidity, Max Sea Level PressureIn, Mean Sea Level PressureIn, Min Sea Level PressureIn, Max VisibilityMiles, Mean VisibilityMiles, Min VisibilityMiles, Max Wind SpeedMPH, Mean Wind SpeedMPH, Max Gust SpeedMPH,PrecipitationIn, CloudCover, Events, WindDirDegrees
2012-11-1,78,60,42,52,45,39,100,73,24,30.08,30.02,29.95,10,9,5,7,1,,0.00,0,,205
2012-11-2,86,66,46,57,50,45,100,63,23,30.01,29.97,29.93,10,8,3,14,2,20,0.00,0,,227
2012-11-3,80,71,62,61,52,37,78,54,32,30.12,30.04,29.97,10,10,10,12,6,16,0.00,2,Thunderstorm,280
2012-11-4,71,58,44,46,42,32,100,58,23,30.21,30.13,30.08,10,10,7,8,4,,0.00,2,,78
2012-11-5,69,56,44,50,43,36,100,63,30,30.11,30.04,29.96,10,10,7,17,4,23,0.00,4,,289
2012-11-6,69,55,41,43,39,30,100,64,23,30.14,30.07,30.01,10,10,5,12,3,,0.00,1,,293
2012-11-7,66,50,35,39,32,27,93,59,23,30.17,30.12,30.09,10,10,10,12,3,18,0.00,0,,293
2012-11-8,71,52,33,41,37,32,100,61,26,30.23,30.14,30.06,10,10,10,10,2,16,0.00,0,,151
2012-11-9,77,68,60,55,52,41,77,59,44,30.12,30.05,29.99,10,10,10,13,9,26,0.00,3,,184
2012-11-10,77,70,62,63,57,52,100,69,41,30.12,30.02,29.95,10,9,5,15,8,32,0.00,4,,175
2012-11-11,69,56,42,66,57,41,100,88,68,30.20,29.98,29.86,10,8,2,16,9,29,1.92,8,Rain-Thunderstorm,201
2012-11-12,55,44,32,41,27,18,100,63,23,30.50,30.41,30.20,10,10,10,10,5,20,0.00,1,,358
2012-11-13,57,42,28,37,28,18,100,69,21,30.53,30.45,30.36,10,10,10,9,1,,0.00,0,,74
2012-11-14,59,46,32,36,30,23,100,70,25,30.44,30.37,30.31,10,10,10,8,1,,0.00,0,,55
2012-11-15,62,46,30,36,31,27,100,71,29,30.37,30.32,30.27,10,10,10,6,0,,0.00,0,,69
2012-11-16,62,47,32,41,31,27,100,68,26,30.43,30.38,30.34,10,10,10,10,1,,0.00,0,,63
2012-11-17,66,48,30,37,32,27,100,73,24,30.45,30.38,30.32,10,10,7,5,0,,0.00,0,,44
2012-11-18,68,50,32,39,33,28,100,63,23,30.37,30.31,30.25,10,10,7,8,1,,0.00,0,,152
2012-11-19,66,56,46,46,41,34,87,58,35,30.28,30.23,30.18,10,10,10,6,1,,0.00,7,Rain,211
2012-11-20,77,60,44,50,47,41,100,69,31,30.22,30.18,30.13,10,10,10,10,1,16,0.00,1,,265
2012-11-21,75,55,35,50,40,32,100,71,21,30.31,30.23,30.17,10,9,1,4,0,,0.00,0,,60
2012-11-22,71,56,42,59,45,41,100,64,35,30.18,30.13,30.05,10,10,5,8,2,16,0.13,1,Rain,210
2012-11-23,60,50,41,59,34,19,100,53,25,30.41,30.33,30.16,10,10,3,17,6,24,0.09,2,Rain,335
2012-11-24,59,44,28,27,20,10,80,44,16,30.40,30.28,30.14,10,10,10,7,1,,0.00,0,,162
2012-11-25,66,50,33,45,33,23,81,47,30,30.13,30.00,29.91,10,10,10,9,3,,0.00,0,,216
2012-11-26,64,55,46,63,54,45,100,85,59,30.23,30.03,29.95,10,8,4,10,4,17,0.00,8,,256
2012-11-27,55,44,32,43,32,28,100,68,36,30.40,30.33,30.24,10,10,10,12,4,17,0.00,1,,22
2012-11-28,60,44,28,37,33,28,100,76,31,30.47,30.37,30.31,10,10,5,6,1,,0.00,0,,201
2012-11-29,66,50,33,34,31,23,100,47,21,30.31,30.24,30.16,10,10,10,9,2,,0.00,0,,183
2012-11-30,64,60,55,57,47,30,82,65,34,30.21,30.16,30.11,10,9,5,8,3,18,0.00,7,,220